Time;durP1;ratioP1;P1;durP2;ratioP2;P2;SDS_P1;SDS_P2;PMS_P1;PMS_P2;Temp;Humidity;BMP_temperature;BMP_pressure;BME280_temperature;BME280_humidity;BME280_pressure;Samples;Min_cycle;Max_cycle;Signal;HPM_P1;HPM_P2
2023/06/22 00:01:01;;;;;;;10.80;9.85;;;23.50;99.90;;;;;;4988120;28;20214;-73
2023/06/22 00:03:28;;;;;;;11.23;10.10;;;23.50;99.90;;;;;;4987536;28;20719;-73
2023/06/22 00:05:56;;;;;;;10.50;9.73;;;23.50;99.90;;;;;;4987890;28;20317;-73
2023/06/22 00:08:23;;;;;;;10.48;9.68;;;23.40;99.90;;;;;;4987249;28;20218;-73
2023/06/22 00:10:50;;;;;;;10.82;10.02;;;23.40;99.90;;;;;;4987522;28;20210;-73
2023/06/22 00:13:18;;;;;;;11.35;10.27;;;23.30;99.90;;;;;;4987729;28;20208;-73
2023/06/22 00:15:45;;;;;;;10.88;9.93;;;23.40;99.90;;;;;;4987567;28;21155;-73
2023/06/22 00:18:13;;;;;;;10.35;9.52;;;23.30;99.90;;;;;;4987287;28;20321;-73
2023/06/22 00:20:40;;;;;;;10.90;9.85;;;23.30;99.90;;;;;;4987405;28;20249;-73
2023/06/22 00:23:08;;;;;;;11.38;10.07;;;23.30;99.90;;;;;;4987510;28;20293;-73
2023/06/22 00:25:35;;;;;;;10.85;9.95;;;23.20;99.90;;;;;;4987197;28;20458;-73
2023/06/22 00:28:03;;;;;;;10.90;9.80;;;23.20;99.90;;;;;;4987215;28;20237;-73
2023/06/22 00:30:32;;;;;;;10.15;9.35;;;23.20;99.90;;;;;;4987218;28;20249;-73
2023/06/22 00:33:00;;;;;;;10.07;9.27;;;23.20;99.90;;;;;;4995874;28;20209;-73
2023/06/22 00:35:28;;;;;;;11.45;10.45;;;23.20;99.90;;;;;;5007130;28;20236;-74
2023/06/22 00:38:00;;;;;;;10.88;9.98;;;23.20;99.90;;;;;;5007246;28;20636;-74
2023/06/22 00:40:27;;;;;;;10.30;9.60;;;23.20;99.90;;;;;;5003730;28;20202;-75
2023/06/22 00:42:55;;;;;;;9.95;9.25;;;23.10;99.90;;;;;;4987532;28;21030;-74
2023/06/22 00:45:23;;;;;;;10.73;9.85;;;23.10;99.90;;;;;;4987077;28;20210;-74
2023/06/22 00:47:52;;;;;;;10.02;9.05;;;23.10;99.90;;;;;;4987516;28;20206;-74
2023/06/22 00:50:22;;;;;;;10.05;9.32;;;23.10;99.90;;;;;;4987082;28;20308;-74
2023/06/22 00:52:51;;;;;;;10.43;9.65;;;23.10;99.90;;;;;;4987196;28;20269;-74
2023/06/22 00:55:19;;;;;;;10.85;10.05;;;23.10;99.90;;;;;;4987368;28;20689;-74
2023/06/22 00:57:47;;;;;;;10.95;9.75;;;23.00;99.90;;;;;;4990241;28;20210;-74
2023/06/22 01:00:20;;;;;;;11.10;9.98;;;23.00;99.90;;;;;;5003919;28;20218;-75
2023/06/22 01:02:51;;;;;;;10.38;9.68;;;23.00;99.90;;;;;;4987191;28;20190;-74
2023/06/22 01:05:20;;;;;;;10.85;9.85;;;23.00;99.90;;;;;;4987188;28;20576;-75
2023/06/22 01:08:01;;;;;;;10.52;9.55;;;22.90;99.90;;;;;;4987043;28;20214;-74
2023/06/22 01:10:35;;;;;;;9.93;9.07;;;22.90;99.90;;;;;;4987192;28;20289;-74
2023/06/22 01:13:05;;;;;;;10.00;9.23;;;22.90;99.90;;;;;;4974347;28;20214;-74
2023/06/22 01:15:36;;;;;;;9.85;9.15;;;22.90;99.90;;;;;;4978220;28;20296;-74
2023/06/22 01:18:05;;;;;;;10.70;9.63;;;22.90;99.90;;;;;;4986975;28;20214;-74
2023/06/22 01:20:35;;;;;;;9.38;8.57;;;22.80;99.90;;;;;;4986922;28;20221;-74
2023/06/22 01:23:10;;;;;;;9.23;8.63;;;22.90;99.90;;;;;;4986674;28;20285;-74
2023/06/22 01:25:44;;;;;;;10.30;9.50;;;22.80;99.90;;;;;;4987079;28;20198;-74
2023/06/22 01:28:23;;;;;;;10.15;8.50;;;22.80;99.90;;;;;;4987290;28;20197;-74
2023/06/22 01:31:05;;;;;;;9.63;8.85;;;22.80;99.90;;;;;;5006481;28;20197;-74
2023/06/22 01:33:35;;;;;;;10.57;9.50;;;22.80;99.90;;;;;;4999930;28;20198;-74
2023/06/22 01:36:03;;;;;;;10.18;9.40;;;22.80;99.90;;;;;;4986800;28;20567;-74
2023/06/22 01:38:31;;;;;;;10.50;9.48;;;22.80;99.90;;;;;;4986824;28;20225;-74
2023/06/22 01:40:58;;;;;;;9.40;8.60;;;22.80;99.90;;;;;;4986916;28;20210;-74
2023/06/22 01:43:27;;;;;;;9.90;9.10;;;22.70;99.90;;;;;;4986889;28;20222;-74
2023/06/22 01:45:56;;;;;;;9.82;9.13;;;22.70;99.90;;;;;;4986965;28;20301;-74
2023/06/22 01:48:25;;;;;;;10.43;9.48;;;22.70;99.90;;;;;;4986381;28;20301;-74
2023/06/22 01:50:53;;;;;;;9.57;8.88;;;22.70;99.90;;;;;;4986758;28;20221;-74
2023/06/22 01:53:22;;;;;;;9.93;9.05;;;22.60;99.90;;;;;;4988703;28;20277;-74
2023/06/22 01:55:49;;;;;;;10.00;9.27;;;22.60;99.90;;;;;;4996744;28;20220;-74
2023/06/22 01:58:16;;;;;;;10.57;9.73;;;22.60;99.90;;;;;;4990384;28;20214;-74
2023/06/22 02:00:49;;;;;;;10.18;9.27;;;22.60;99.90;;;;;;4990668;28;20216;-74
2023/06/22 02:03:23;;;;;;;10.02;9.32;;;22.50;99.90;;;;;;4990342;28;20289;-74
2023/06/22 02:05:53;;;;;;;9.65;8.95;;;22.50;99.90;;;;;;4991033;28;20566;-74
2023/06/22 02:08:23;;;;;;;10.57;9.57;;;22.50;99.90;;;;;;4999535;28;20333;-74
2023/06/22 02:10:52;;;;;;;10.40;9.60;;;22.50;99.90;;;;;;4990350;28;20732;-74
2023/06/22 02:13:20;;;;;;;9.95;9.15;;;22.50;99.90;;;;;;4990459;28;20257;-75
2023/06/22 02:15:48;;;;;;;10.35;9.48;;;22.50;99.90;;;;;;4989558;28;20237;-73
2023/06/22 02:18:15;;;;;;;10.73;9.82;;;22.50;99.90;;;;;;4989861;28;20680;-73
2023/06/22 02:20:43;;;;;;;10.32;9.52;;;22.40;99.90;;;;;;4990338;28;20238;-73
2023/06/22 02:23:10;;;;;;;10.98;9.60;;;22.40;99.90;;;;;;4990209;28;20210;-73
2023/06/22 02:25:38;;;;;;;11.20;10.10;;;22.40;99.90;;;;;;4985331;28;20234;-73
2023/06/22 02:28:05;;;;;;;10.05;9.23;;;22.40;99.90;;;;;;4989702;28;20236;-74
2023/06/22 02:30:32;;;;;;;10.15;9.18;;;22.30;99.90;;;;;;4987889;28;20332;-73
2023/06/22 02:32:59;;;;;;;9.50;8.68;;;22.30;99.90;;;;;;4987707;28;20720;-73
2023/06/22 02:35:27;;;;;;;9.57;8.63;;;22.40;99.90;;;;;;4987402;28;20218;-75
2023/06/22 02:37:55;;;;;;;10.18;9.18;;;22.40;99.90;;;;;;4988289;28;20212;-75
2023/06/22 02:40:22;;;;;;;9.52;8.75;;;22.40;99.90;;;;;;4987871;28;21011;-75
2023/06/22 02:42:49;;;;;;;11.60;9.35;;;22.40;99.90;;;;;;4988110;28;20325;-75
2023/06/22 02:45:16;;;;;;;9.32;8.52;;;22.40;99.90;;;;;;4987803;28;20325;-75
2023/06/22 02:47:43;;;;;;;9.10;8.30;;;22.40;99.90;;;;;;4988054;28;20206;-75
2023/06/22 02:50:11;;;;;;;9.65;8.90;;;22.50;99.90;;;;;;4987807;28;20289;-75
2023/06/22 02:52:39;;;;;;;9.85;9.05;;;22.40;99.90;;;;;;4987241;28;20326;-76
2023/06/22 02:55:09;;;;;;;11.10;10.15;;;22.40;99.90;;;;;;4987612;28;20293;-76
2023/06/22 02:57:35;;;;;;;9.93;9.15;;;22.30;99.90;;;;;;4987592;28;20210;-75
2023/06/22 03:00:15;;;;;;;9.80;8.93;;;22.30;99.90;;;;;;4987548;28;20338;-75
2023/06/22 03:02:41;;;;;;;9.88;8.88;;;22.40;99.90;;;;;;4986586;28;20196;-73
2023/06/22 03:05:13;;;;;;;10.30;9.45;;;22.40;99.90;;;;;;4987398;28;20301;-73
2023/06/22 03:07:40;;;;;;;10.60;9.70;;;22.50;99.90;;;;;;5003265;28;20213;-73
2023/06/22 03:10:10;;;;;;;11.32;10.13;;;22.40;99.90;;;;;;5007653;28;20604;-74
2023/06/22 03:12:37;;;;;;;10.65;9.70;;;22.40;99.90;;;;;;5007192;28;20209;-73
2023/06/22 03:15:06;;;;;;;9.73;9.02;;;22.40;99.90;;;;;;5007403;28;20206;-74
2023/06/22 03:17:33;;;;;;;10.82;9.82;;;22.40;99.90;;;;;;5006777;28;20277;-73
2023/06/22 03:20:00;;;;;;;10.02;9.20;;;22.50;99.90;;;;;;5006824;28;20233;-74
2023/06/22 03:22:27;;;;;;;12.95;9.40;;;22.40;99.90;;;;;;4992657;28;20217;-73
2023/06/22 03:24:54;;;;;;;13.23;10.73;;;22.40;99.90;;;;;;4988271;28;20245;-74
2023/06/22 03:27:22;;;;;;;11.15;10.20;;;22.40;99.90;;;;;;4988447;28;20301;-73
2023/06/22 03:29:49;;;;;;;12.43;9.73;;;22.40;99.90;;;;;;4988832;28;20241;-73
2023/06/22 03:32:16;;;;;;;11.40;10.30;;;22.30;99.90;;;;;;4988776;28;20210;-73
2023/06/22 03:34:46;;;;;;;10.98;10.15;;;22.30;99.90;;;;;;4988352;28;20301;-73
2023/06/22 03:37:14;;;;;;;11.60;10.48;;;22.30;99.90;;;;;;4988714;28;20199;-73
2023/06/22 03:39:41;;;;;;;10.65;9.75;;;22.30;99.90;;;;;;4988155;28;20265;-73
2023/06/22 03:42:08;;;;;;;11.43;10.43;;;22.30;99.90;;;;;;4988119;28;20309;-73
2023/06/22 03:44:37;;;;;;;10.85;9.95;;;22.30;99.90;;;;;;4988563;28;20225;-73
2023/06/22 03:47:06;;;;;;;11.57;10.57;;;22.30;99.90;;;;;;4992694;28;20208;-74
2023/06/22 03:49:33;;;;;;;11.10;10.20;;;22.30;99.90;;;;;;4976051;28;20210;-73
2023/06/22 03:52:01;;;;;;;11.75;10.75;;;22.30;99.90;;;;;;4987916;28;20277;-73
2023/06/22 03:54:29;;;;;;;13.65;11.00;;;22.20;99.90;;;;;;4987510;28;20245;-73
2023/06/22 03:56:56;;;;;;;11.57;10.48;;;22.20;99.90;;;;;;4987982;28;20210;-73
2023/06/22 03:59:22;;;;;;;11.85;10.68;;;22.20;99.90;;;;;;4987984;28;20348;-73
2023/06/22 04:01:51;;;;;;;11.90;10.88;;;22.20;99.90;;;;;;4987851;28;20301;-73
2023/06/22 04:04:18;;;;;;;10.20;9.40;;;22.20;99.90;;;;;;4987770;28;20781;-73
2023/06/22 04:06:45;;;;;;;11.48;10.23;;;22.30;99.90;;;;;;4995858;28;20648;-73
2023/06/22 04:09:12;;;;;;;11.93;10.73;;;22.20;99.90;;;;;;5007165;28;20213;-73
2023/06/22 04:11:38;;;;;;;10.70;9.65;;;22.20;99.90;;;;;;5007069;28;20237;-73
2023/06/22 04:14:05;;;;;;;10.40;9.60;;;22.20;99.90;;;;;;5007441;28;20334;-73
2023/06/22 04:16:32;;;;;;;11.13;10.13;;;22.20;99.90;;;;;;5006532;28;20304;-73
2023/06/22 04:19:00;;;;;;;10.60;9.70;;;22.10;99.90;;;;;;5007099;28;20288;-73
2023/06/22 04:21:27;;;;;;;9.95;9.05;;;22.20;99.90;;;;;;5006826;28;20296;-74
2023/06/22 04:23:54;;;;;;;10.77;9.77;;;22.20;99.90;;;;;;4995796;28;20285;-73
2023/06/22 04:26:21;;;;;;;12.02;9.20;;;22.20;99.90;;;;;;4987460;28;20639;-73
2023/06/22 04:28:51;;;;;;;11.60;10.55;;;22.30;99.90;;;;;;4987634;28;20720;-73
2023/06/22 04:31:18;;;;;;;10.82;9.73;;;22.30;99.90;;;;;;4986898;28;20217;-73
2023/06/22 04:33:45;;;;;;;10.48;9.48;;;22.40;99.90;;;;;;4987118;28;20226;-73
2023/06/22 04:36:14;;;;;;;9.95;9.00;;;22.40;99.90;;;;;;4991152;28;20301;-73
2023/06/22 04:38:42;;;;;;;10.82;9.10;;;22.40;99.90;;;;;;5006864;28;20213;-73
2023/06/22 04:41:14;;;;;;;10.77;8.65;;;22.40;99.90;;;;;;5006630;28;20598;-73
2023/06/22 04:43:41;;;;;;;9.55;8.68;;;22.40;99.90;;;;;;5006506;28;20764;-73
2023/06/22 04:46:07;;;;;;;9.52;8.65;;;22.50;99.90;;;;;;4996070;28;20216;-73
2023/06/22 04:48:34;;;;;;;10.00;9.00;;;22.50;99.90;;;;;;5001367;28;20704;-73
2023/06/22 04:51:03;;;;;;;8.60;7.57;;;22.50;99.90;;;;;;5006788;28;20201;-73
2023/06/22 04:53:32;;;;;;;8.70;7.90;;;22.60;99.90;;;;;;5006037;28;20245;-73
2023/06/22 04:56:04;;;;;;;8.88;8.15;;;22.70;99.90;;;;;;4993939;28;20210;-73
2023/06/22 04:58:33;;;;;;;9.05;8.15;;;22.80;99.90;;;;;;4986704;28;20203;-73
2023/06/22 05:01:00;;;;;;;8.88;7.65;;;22.80;99.90;;;;;;4986730;28;20494;-73
2023/06/22 05:03:27;;;;;;;8.00;7.40;;;22.80;99.90;;;;;;4985916;28;20214;-73
2023/06/22 05:05:54;;;;;;;9.43;8.60;;;22.90;99.90;;;;;;4986844;28;20297;-73
2023/06/22 05:08:26;;;;;;;7.97;7.38;;;23.00;99.90;;;;;;5005875;28;20219;-73
2023/06/22 05:10:54;;;;;;;8.85;7.97;;;23.00;99.90;;;;;;5006109;28;20727;-73
2023/06/22 05:13:21;;;;;;;8.45;7.75;;;23.10;99.90;;;;;;5004057;28;20672;-73
2023/06/22 05:15:48;;;;;;;8.25;7.53;;;23.10;99.90;;;;;;4986503;28;20241;-73
2023/06/22 05:18:15;;;;;;;7.82;6.95;;;23.10;99.90;;;;;;4986160;28;20683;-73
2023/06/22 05:20:42;;;;;;;9.43;6.80;;;23.10;99.90;;;;;;4986297;28;20229;-73
2023/06/22 05:23:09;;;;;;;6.70;6.10;;;23.20;99.90;;;;;;4986340;28;20203;-74
2023/06/22 05:25:36;;;;;;;8.30;7.50;;;23.20;99.90;;;;;;4986181;28;20210;-73
2023/06/22 05:28:11;;;;;;;8.18;7.40;;;23.20;99.90;;;;;;4986081;28;20293;-74
2023/06/22 05:30:38;;;;;;;9.02;7.38;;;23.30;99.90;;;;;;4985580;28;20208;-73
2023/06/22 05:33:05;;;;;;;8.38;7.50;;;23.20;99.90;;;;;;4986157;28;20297;-73
2023/06/22 05:35:32;;;;;;;8.00;7.38;;;23.30;99.90;;;;;;4986158;28;20217;-73
2023/06/22 05:37:59;;;;;;;7.38;6.82;;;23.30;99.90;;;;;;5003990;28;20328;-73
2023/06/22 05:40:27;;;;;;;7.05;6.55;;;23.30;99.90;;;;;;5005247;28;20231;-73
2023/06/22 05:42:53;;;;;;;7.50;6.82;;;23.30;99.90;;;;;;4990522;28;20238;-73
2023/06/22 05:45:22;;;;;;;8.93;6.38;;;23.30;99.90;;;;;;4985984;28;20210;-73
2023/06/22 05:47:49;;;;;;;11.32;6.43;;;23.30;99.90;;;;;;4985773;28;20256;-73
2023/06/22 05:50:16;;;;;;;7.47;6.13;;;23.30;99.90;;;;;;4986345;28;20297;-73
2023/06/22 05:52:43;;;;;;;6.10;5.47;;;23.30;99.90;;;;;;4985858;28;20290;-73
2023/06/22 05:55:10;;;;;;;6.85;6.25;;;23.40;99.90;;;;;;4986121;28;20304;-73
2023/06/22 05:57:37;;;;;;;5.47;4.82;;;23.40;99.90;;;;;;4986009;28;20576;-74
2023/06/22 06:00:08;;;;;;;5.80;5.28;;;23.40;99.90;;;;;;4985642;28;20702;-73
2023/06/22 06:02:36;;;;;;;6.03;5.50;;;23.40;99.90;;;;;;4985512;28;20205;-73
2023/06/22 06:05:03;;;;;;;5.70;5.20;;;23.40;99.90;;;;;;4985953;28;20799;-73
2023/06/22 06:07:30;;;;;;;5.15;4.60;;;23.50;99.90;;;;;;4999894;28;20259;-73
2023/06/22 06:09:57;;;;;;;5.82;4.78;;;23.50;99.90;;;;;;5005927;28;20228;-73
2023/06/22 06:12:24;;;;;;;5.18;4.50;;;23.50;99.90;;;;;;5005090;28;20216;-73
2023/06/22 06:14:51;;;;;;;5.93;4.13;;;23.50;99.90;;;;;;5005452;28;20217;-73
2023/06/22 06:17:18;;;;;;;5.20;4.70;;;23.60;99.90;;;;;;5005417;28;20660;-73
2023/06/22 06:19:49;;;;;;;4.50;4.20;;;23.60;99.90;;;;;;5005415;28;20237;-73
2023/06/22 06:22:16;;;;;;;7.85;4.15;;;23.40;99.90;;;;;;5005576;28;20320;-73
2023/06/22 06:24:43;;;;;;;4.18;3.78;;;23.50;99.90;;;;;;4987935;28;20213;-73
2023/06/22 06:27:10;;;;;;;5.07;4.32;;;23.60;99.90;;;;;;4986077;28;20292;-73
2023/06/22 06:29:37;;;;;;;4.28;3.97;;;23.50;99.90;;;;;;4985838;28;20212;-74
2023/06/22 06:32:04;;;;;;;5.95;4.30;;;23.60;99.90;;;;;;4985983;28;20349;-73
2023/06/22 06:34:31;;;;;;;4.70;4.30;;;23.60;99.90;;;;;;4985998;28;20289;-73
2023/06/22 06:36:59;;;;;;;4.35;4.03;;;23.60;99.90;;;;;;4992687;28;20293;-73
2023/06/22 06:39:26;;;;;;;4.38;4.07;;;23.70;99.90;;;;;;4988240;28;20320;-73
2023/06/22 06:41:53;;;;;;;10.30;4.28;;;23.70;99.90;;;;;;4989137;28;20317;-73
2023/06/22 06:44:20;;;;;;;5.38;3.97;;;23.80;99.90;;;;;;4989091;28;20246;-73
2023/06/22 06:46:46;;;;;;;5.75;3.67;;;23.80;99.90;;;;;;4988635;28;20786;-73
2023/06/22 06:49:14;;;;;;;7.80;3.70;;;23.80;99.90;;;;;;4988879;28;20610;-73
2023/06/22 06:51:41;;;;;;;3.75;3.22;;;23.80;99.90;;;;;;4988659;28;20214;-73
2023/06/22 06:54:09;;;;;;;4.03;3.70;;;23.90;99.90;;;;;;4988556;28;20238;-73
2023/06/22 06:56:36;;;;;;;3.60;3.40;;;23.90;99.90;;;;;;4988461;28;20209;-73
2023/06/22 06:59:03;;;;;;;4.32;3.58;;;23.90;99.90;;;;;;4988547;28;20748;-73
2023/06/22 07:01:33;;;;;;;8.40;4.00;;;24.00;99.90;;;;;;4987848;28;20604;-73
2023/06/22 07:04:00;;;;;;;4.38;4.00;;;24.00;99.90;;;;;;4988643;28;20224;-73
2023/06/22 07:06:29;;;;;;;4.15;3.65;;;24.10;99.90;;;;;;4988348;28;20952;-73
2023/06/22 07:08:56;;;;;;;5.47;4.43;;;24.20;99.90;;;;;;4989030;28;20246;-73
2023/06/22 07:11:24;;;;;;;4.13;3.80;;;24.30;99.90;;;;;;4988598;28;20329;-73
2023/06/22 07:13:51;;;;;;;3.95;3.58;;;24.30;99.90;;;;;;4988950;28;20251;-73
2023/06/22 07:16:18;;;;;;;3.95;3.65;;;24.40;99.90;;;;;;4988613;28;20285;-73
2023/06/22 07:18:45;;;;;;;3.45;3.25;;;24.40;99.90;;;;;;4988559;28;20210;-73
2023/06/22 07:21:12;;;;;;;6.00;3.17;;;24.40;99.90;;;;;;4988366;28;20324;-73
2023/06/22 07:23:39;;;;;;;3.78;3.22;;;24.40;99.90;;;;;;4988214;28;20297;-73
2023/06/22 07:26:08;;;;;;;7.93;3.35;;;24.40;99.90;;;;;;4988876;28;20245;-73
2023/06/22 07:28:37;;;;;;;3.28;3.08;;;24.50;99.90;;;;;;4988645;28;20205;-73
2023/06/22 07:31:04;;;;;;;3.10;2.80;;;24.50;99.90;;;;;;4988638;28;20207;-73
2023/06/22 07:33:31;;;;;;;3.10;2.90;;;24.60;99.90;;;;;;5007251;28;20213;-73
2023/06/22 07:35:58;;;;;;;4.43;3.17;;;24.60;99.90;;;;;;4988495;28;20213;-73
2023/06/22 07:38:25;;;;;;;3.45;3.15;;;24.70;99.90;;;;;;4988215;28;20210;-73
2023/06/22 07:40:53;;;;;;;2.90;2.80;;;24.70;99.90;;;;;;4988015;28;20246;-73
2023/06/22 07:43:20;;;;;;;3.47;3.10;;;24.80;99.90;;;;;;4987900;28;20216;-73
2023/06/22 07:45:53;;;;;;;3.47;2.97;;;24.80;99.90;;;;;;4987464;28;20320;-73
2023/06/22 07:48:22;;;;;;;3.13;2.92;;;24.90;99.90;;;;;;4987939;28;20191;-73
2023/06/22 07:50:49;;;;;;;3.20;3.00;;;24.90;99.90;;;;;;4986723;28;20779;-73
2023/06/22 07:53:15;;;;;;;3.55;2.80;;;25.00;99.90;;;;;;4987582;28;20273;-73
2023/06/22 07:55:42;;;;;;;3.28;3.08;;;25.00;99.90;;;;;;4987803;28;20305;-73
2023/06/22 07:58:09;;;;;;;2.70;2.50;;;25.10;99.90;;;;;;4987637;28;20633;-73
2023/06/22 08:00:36;;;;;;;5.28;3.30;;;25.00;99.90;;;;;;4987478;28;20244;-73
2023/06/22 08:03:05;;;;;;;3.03;2.72;;;25.10;99.90;;;;;;4987380;28;20691;-73
2023/06/22 08:05:32;;;;;;;5.38;2.67;;;25.10;99.90;;;;;;4987633;28;20309;-73
2023/06/22 08:07:59;;;;;;;3.72;2.95;;;25.10;99.90;;;;;;4987498;28;20669;-73
2023/06/22 08:10:26;;;;;;;3.40;2.83;;;25.20;99.90;;;;;;4987493;28;20218;-73
2023/06/22 08:12:53;;;;;;;4.70;2.75;;;25.20;99.90;;;;;;4987332;28;20553;-73
2023/06/22 08:15:20;;;;;;;3.10;2.80;;;25.20;99.90;;;;;;4987164;28;20306;-73
2023/06/22 08:17:47;;;;;;;5.18;3.10;;;25.30;99.90;;;;;;4987129;28;21000;-73
2023/06/22 08:20:15;;;;;;;3.67;3.10;;;25.40;99.90;;;;;;4987551;28;20580;-73
2023/06/22 08:22:42;;;;;;;2.80;2.60;;;25.40;99.90;;;;;;4985873;28;20250;-72
2023/06/22 08:25:10;;;;;;;3.20;2.90;;;25.40;99.90;;;;;;4973682;28;20210;-73
2023/06/22 08:27:37;;;;;;;2.67;2.47;;;25.50;99.90;;;;;;4989020;28;20645;-72
2023/06/22 08:30:06;;;;;;;2.75;2.53;;;25.50;99.90;;;;;;5004827;28;20300;-72
2023/06/22 08:32:33;;;;;;;2.85;2.55;;;25.50;99.90;;;;;;4986974;28;20209;-72
2023/06/22 08:35:00;;;;;;;2.85;2.60;;;25.50;99.90;;;;;;4986823;28;20695;-72
2023/06/22 08:37:31;;;;;;;3.30;2.78;;;25.60;99.90;;;;;;5000664;28;20218;-72
2023/06/22 08:39:58;;;;;;;2.40;2.20;;;25.60;99.90;;;;;;5000937;28;20198;-72
2023/06/22 08:42:25;;;;;;;2.92;2.70;;;25.60;99.90;;;;;;4986668;28;20248;-72
2023/06/22 08:44:53;;;;;;;2.97;2.75;;;25.60;99.90;;;;;;4986784;28;20221;-72
2023/06/22 08:47:21;;;;;;;2.42;2.28;;;25.60;99.90;;;;;;4986965;28;20293;-72
2023/06/22 08:49:48;;;;;;;3.25;2.50;;;25.70;99.90;;;;;;4986546;28;20673;-72
2023/06/22 08:52:15;;;;;;;2.70;2.40;;;25.70;99.90;;;;;;4986639;28;20221;-72
2023/06/22 08:54:43;;;;;;;2.80;2.50;;;25.80;99.90;;;;;;4986846;28;20289;-72
2023/06/22 08:57:11;;;;;;;3.00;2.80;;;25.80;99.90;;;;;;4986536;28;20214;-72
2023/06/22 08:59:38;;;;;;;2.45;2.35;;;25.80;99.90;;;;;;4986276;28;20210;-73
2023/06/22 09:02:05;;;;;;;2.88;2.63;;;25.90;99.90;;;;;;4985613;28;20319;-72
2023/06/22 09:04:34;;;;;;;2.83;2.63;;;25.90;99.90;;;;;;4986863;28;20224;-72
2023/06/22 09:07:01;;;;;;;4.63;2.50;;;26.00;99.90;;;;;;4986974;28;20206;-72
2023/06/22 09:09:28;;;;;;;3.08;2.88;;;26.00;99.90;;;;;;4986887;28;20297;-73
2023/06/22 09:11:57;;;;;;;3.55;2.90;;;26.10;99.90;;;;;;4986442;28;20230;-73
2023/06/22 09:14:24;;;;;;;2.90;2.60;;;26.10;99.90;;;;;;4986246;28;20218;-73
2023/06/22 09:16:51;;;;;;;3.05;2.85;;;26.10;99.90;;;;;;4986693;28;20276;-73
2023/06/22 09:19:18;;;;;;;3.67;2.78;;;26.20;99.90;;;;;;4986477;28;20214;-73
2023/06/22 09:21:45;;;;;;;3.00;2.80;;;26.20;99.90;;;;;;4986265;28;20237;-73
2023/06/22 09:24:12;;;;;;;3.55;2.90;;;26.20;99.90;;;;;;4981432;28;20209;-73
2023/06/22 09:26:39;;;;;;;3.33;2.97;;;26.20;99.90;;;;;;5001676;28;20214;-73
2023/06/22 09:29:07;;;;;;;3.08;2.88;;;26.20;99.90;;;;;;4986591;28;20221;-73
2023/06/22 09:31:34;;;;;;;3.45;3.25;;;26.30;99.90;;;;;;4986150;28;20221;-73
2023/06/22 09:34:01;;;;;;;3.75;3.45;;;26.30;99.90;;;;;;4986521;28;20301;-73
2023/06/22 09:36:28;;;;;;;3.63;3.33;;;26.40;99.90;;;;;;4993532;28;20296;-73
2023/06/22 09:38:58;;;;;;;3.65;3.30;;;26.40;99.90;;;;;;4996341;28;20248;-73
2023/06/22 09:41:25;;;;;;;3.45;3.15;;;26.50;99.90;;;;;;4986296;28;20273;-73
2023/06/22 09:43:52;;;;;;;4.68;2.95;;;26.50;99.90;;;;;;4986113;28;20658;-73
2023/06/22 09:46:21;;;;;;;3.25;3.05;;;26.60;99.90;;;;;;4986110;28;20748;-73
2023/06/22 09:48:48;;;;;;;5.85;3.22;;;26.60;99.90;;;;;;4986450;28;20210;-73
2023/06/22 09:51:15;;;;;;;3.25;3.03;;;26.70;99.90;;;;;;4986432;28;20313;-73
2023/06/22 09:53:42;;;;;;;3.55;3.35;;;26.70;99.90;;;;;;4986035;28;20317;-73
2023/06/22 09:56:14;;;;;;;3.72;3.42;;;26.70;99.90;;;;;;5000413;28;20298;-73
2023/06/22 09:58:41;;;;;;;3.47;3.28;;;26.70;99.90;;;;;;5005821;28;20198;-73
2023/06/22 10:01:08;;;;;;;4.00;3.20;;;26.80;99.90;;;;;;5005386;28;20235;-73
2023/06/22 10:03:36;;;;;;;3.75;3.22;;;26.90;99.90;;;;;;5005420;28;20255;-73
2023/06/22 10:06:04;;;;;;;3.28;3.08;;;26.90;99.90;;;;;;5005597;28;20308;-73
2023/06/22 10:08:31;;;;;;;3.33;3.08;;;27.00;99.70;;;;;;5005032;28;20301;-73
2023/06/22 10:10:58;;;;;;;3.50;3.10;;;27.00;99.30;;;;;;5005055;28;20694;-73
2023/06/22 10:13:25;;;;;;;3.40;2.83;;;27.10;98.90;;;;;;5006130;28;20629;-73
2023/06/22 10:15:52;;;;;;;3.10;2.80;;;27.10;99.20;;;;;;5008548;28;20296;-73
2023/06/22 10:18:19;;;;;;;3.60;3.00;;;27.20;98.70;;;;;;5009573;28;20205;-73
2023/06/22 10:20:50;;;;;;;3.33;3.13;;;27.30;99.00;;;;;;5009177;28;20300;-73
2023/06/22 10:23:17;;;;;;;3.03;2.72;;;27.30;99.20;;;;;;5001454;28;20214;-73
2023/06/22 10:25:43;;;;;;;3.10;2.90;;;27.40;98.90;;;;;;4989206;28;20220;-73
2023/06/22 10:28:10;;;;;;;3.25;2.95;;;27.40;98.70;;;;;;4989102;28;20656;-73
2023/06/22 10:30:37;;;;;;;3.42;3.22;;;27.50;99.00;;;;;;4989493;28;20241;-73
2023/06/22 10:33:04;;;;;;;4.43;3.50;;;27.50;98.90;;;;;;4989253;28;20704;-73
2023/06/22 10:35:31;;;;;;;3.97;3.67;;;27.60;98.70;;;;;;4989271;28;20206;-73
2023/06/22 10:38:00;;;;;;;3.60;3.30;;;27.70;98.40;;;;;;5005522;28;20300;-73
2023/06/22 10:40:27;;;;;;;3.45;3.15;;;27.80;98.00;;;;;;5001231;28;20241;-73
2023/06/22 10:42:54;;;;;;;3.85;3.55;;;27.90;98.30;;;;;;4989244;28;20234;-73
2023/06/22 10:45:21;;;;;;;15.98;4.05;;;27.90;98.70;;;;;;4989267;28;20305;-73
2023/06/22 10:47:48;;;;;;;4.10;3.53;;;27.90;98.60;;;;;;4988750;28;20644;-73
2023/06/22 10:50:15;;;;;;;4.20;3.90;;;27.90;98.60;;;;;;4989018;28;20321;-73
2023/06/22 10:52:42;;;;;;;4.07;3.78;;;28.00;98.50;;;;;;4988650;28;20252;-73
2023/06/22 10:55:11;;;;;;;4.05;3.70;;;28.10;98.40;;;;;;4988911;28;20206;-73
2023/06/22 10:57:42;;;;;;;4.10;3.80;;;28.20;98.50;;;;;;4988485;28;20202;-73
2023/06/22 11:00:11;;;;;;;5.53;3.75;;;28.30;98.60;;;;;;4988894;28;20199;-73
2023/06/22 11:02:38;;;;;;;3.95;3.65;;;28.50;98.50;;;;;;4988512;28;20230;-73
2023/06/22 11:05:06;;;;;;;7.88;4.25;;;28.60;97.70;;;;;;4988888;28;20234;-73
2023/06/22 11:07:33;;;;;;;3.85;3.65;;;28.70;97.40;;;;;;4988452;28;20823;-73
2023/06/22 11:09:59;;;;;;;3.90;3.65;;;28.90;97.60;;;;;;4988251;28;20680;-73
2023/06/22 11:12:28;;;;;;;3.83;3.63;;;29.00;97.20;;;;;;4988363;28;20689;-73
2023/06/22 11:14:57;;;;;;;3.70;3.50;;;29.10;97.40;;;;;;4988351;28;20214;-73
2023/06/22 11:17:23;;;;;;;3.83;3.60;;;29.10;97.30;;;;;;4998212;28;20292;-73
2023/06/22 11:19:51;;;;;;;6.30;3.92;;;29.20;96.90;;;;;;4998140;28;20991;-73
2023/06/22 11:22:18;;;;;;;5.20;4.13;;;29.40;96.90;;;;;;4988616;28;20325;-73
2023/06/22 11:24:45;;;;;;;3.85;3.65;;;29.60;96.80;;;;;;4987883;28;20297;-73
2023/06/22 11:27:12;;;;;;;3.70;3.50;;;29.80;95.90;;;;;;4988603;28;20664;-73
2023/06/22 11:29:40;;;;;;;4.00;3.75;;;29.80;95.50;;;;;;4988482;28;20344;-73
2023/06/22 11:32:08;;;;;;;4.45;4.00;;;29.80;95.60;;;;;;4988039;28;20653;-73
2023/06/22 11:34:35;;;;;;;4.07;3.80;;;29.80;96.60;;;;;;4988039;28;20675;-73
2023/06/22 11:37:05;;;;;;;6.03;3.97;;;29.90;96.80;;;;;;4990462;28;20324;-73
2023/06/22 11:39:32;;;;;;;3.80;3.60;;;29.80;96.10;;;;;;4988034;28;20232;-73
2023/06/22 11:41:58;;;;;;;4.03;3.72;;;29.70;96.10;;;;;;4988149;28;20325;-73
2023/06/22 11:44:25;;;;;;;4.63;4.00;;;29.60;96.50;;;;;;4987981;28;20288;-73
2023/06/22 11:46:53;;;;;;;4.35;4.00;;;29.50;96.80;;;;;;4987821;28;20207;-73
2023/06/22 11:49:20;;;;;;;3.95;3.65;;;29.50;96.90;;;;;;4987804;28;20265;-73
2023/06/22 11:51:47;;;;;;;4.10;3.90;;;29.60;97.10;;;;;;4988191;28;20217;-73
2023/06/22 11:54:14;;;;;;;4.70;4.30;;;29.70;96.90;;;;;;4987574;28;20734;-73
2023/06/22 11:56:41;;;;;;;4.30;3.85;;;29.70;96.60;;;;;;4969742;28;20211;-73
2023/06/22 11:59:08;;;;;;;4.75;4.00;;;29.60;96.60;;;;;;4968655;28;20305;-73
2023/06/22 12:01:35;;;;;;;3.92;3.72;;;29.50;96.50;;;;;;4967761;28;20246;-73
2023/06/22 12:04:05;;;;;;;3.95;3.70;;;29.40;96.50;;;;;;4968681;28;20298;-73
2023/06/22 12:06:32;;;;;;;4.45;4.05;;;29.30;96.10;;;;;;4974344;28;20692;-73
2023/06/22 12:08:59;;;;;;;6.85;4.22;;;29.30;96.80;;;;;;4988054;28;20210;-73
2023/06/22 12:11:26;;;;;;;3.90;3.70;;;29.50;96.80;;;;;;4987805;28;20233;-73
2023/06/22 12:13:52;;;;;;;3.90;3.60;;;29.70;97.00;;;;;;4999421;28;20292;-73
2023/06/22 12:16:21;;;;;;;4.43;4.13;;;29.90;96.60;;;;;;4995378;28;20214;-73
2023/06/22 12:18:48;;;;;;;4.30;3.65;;;30.10;96.30;;;;;;4987432;28;20291;-73
2023/06/22 12:21:16;;;;;;;4.40;4.00;;;30.40;96.20;;;;;;4987612;28;20231;-73
2023/06/22 12:23:43;;;;;;;4.72;3.78;;;30.60;95.50;;;;;;4977807;28;20234;-73
2023/06/22 12:26:10;;;;;;;4.20;3.85;;;30.80;95.50;;;;;;4982406;28;20365;-73
2023/06/22 12:28:37;;;;;;;4.18;3.88;;;31.10;95.10;;;;;;4987407;28;20213;-73
2023/06/22 12:31:04;;;;;;;4.82;3.92;;;31.40;94.70;;;;;;4986982;28;21017;-73
2023/06/22 12:33:31;;;;;;;3.67;3.42;;;31.40;94.10;;;;;;4987163;28;20325;-73
2023/06/22 12:35:58;;;;;;;4.97;3.80;;;31.60;93.80;;;;;;4986714;28;20207;-73
2023/06/22 12:38:26;;;;;;;3.85;3.55;;;31.80;94.10;;;;;;4987290;28;20301;-73
2023/06/22 12:40:53;;;;;;;4.30;3.80;;;31.80;94.00;;;;;;4987304;28;20226;-73
2023/06/22 12:43:20;;;;;;;4.00;3.80;;;31.80;94.10;;;;;;4987057;28;20234;-73
2023/06/22 12:45:47;;;;;;;6.78;3.70;;;31.80;93.80;;;;;;4986842;28;20288;-73